Terminal Aerodrome Forecast
Issued by NWS

Home | Current Version | Previous Version | Text Only | Print | Product List | Glossary On
Versions: 1 2 3 4 5 6 7 8 9 10 11 12 13 14 15 16 17 18 19 20 21 22 23 24 25 26 27 28 29 30 31 32
000
FTUS44 KTSA 171121
TAFFYV
TAF
KFYV 171121Z 1712/1812 VRB03KT P6SM VCSH OVC025
      TEMPO 1712/1716 3SM -SHRA BR BKN007
     FM171600 05005KT P6SM VCSH BKN015
     FM172100 05005KT P6SM VCSH BKN040
     FM180100 00000KT P6SM BKN050
     FM180700 00000KT 1SM BR OVC007=

USA.gov is the U.S. government's official web portal to all federal, state and local government web resources and services.